createdAt,value
2023-02-16T00:00:26.861Z,101858.00
2023-02-16T00:02:54.069Z,101861.00
2023-02-16T00:05:28.208Z,101859.00
2023-02-16T00:07:56.587Z,101869.00
2023-02-16T00:10:25.047Z,101857.00
2023-02-16T00:13:11.736Z,101859.00
2023-02-16T00:15:38.633Z,101861.00
2023-02-16T00:18:19.230Z,101862.00
2023-02-16T00:20:48.276Z,101865.00
2023-02-16T00:23:15.399Z,101865.00
2023-02-16T00:25:42.206Z,101862.00
2023-02-16T00:28:18.390Z,101863.00
2023-02-16T00:30:46.321Z,101857.00
2023-02-16T00:33:18.522Z,101858.00
2023-02-16T00:35:45.612Z,101856.00
2023-02-16T00:38:13.542Z,101857.00
2023-02-16T00:40:42.322Z,101869.00
2023-02-16T00:43:32.498Z,101854.00
2023-02-16T00:45:59.706Z,101854.00
2023-02-16T00:48:26.517Z,101858.00
2023-02-16T00:50:53.588Z,101860.00
2023-02-16T00:53:20.322Z,101869.00
2023-02-16T00:55:47.171Z,101869.00
2023-02-16T00:58:27.860Z,101859.00
2023-02-16T01:01:02.568Z,101861.00
2023-02-16T01:03:29.761Z,101859.00
2023-02-16T01:06:15.409Z,101861.00
2023-02-16T01:09:01.513Z,101852.00
2023-02-16T01:11:28.983Z,101858.00
2023-02-16T01:13:57.498Z,101852.00
2023-02-16T01:16:38.957Z,101863.00
2023-02-16T01:19:06.731Z,101870.00
2023-02-16T01:21:33.881Z,101847.00
2023-02-16T01:24:00.693Z,101848.00
2023-02-16T01:26:27.492Z,101843.00
2023-02-16T01:28:54.215Z,101847.00
2023-02-16T01:31:21.130Z,101844.00
2023-02-16T01:33:47.858Z,101850.00
2023-02-16T01:36:32.546Z,101848.00
2023-02-16T01:39:00.048Z,101837.00
2023-02-16T01:41:57.234Z,101839.00
2023-02-16T01:44:27.240Z,101834.00
2023-02-16T01:47:16.524Z,101827.00
2023-02-16T01:49:43.262Z,101835.00
2023-02-16T01:52:37.813Z,101840.00
2023-02-16T01:55:18.069Z,101838.00
2023-02-16T01:58:03.975Z,101832.00
2023-02-16T02:00:49.061Z,101827.00
2023-02-16T02:03:49.353Z,101838.00
2023-02-16T02:06:27.791Z,101836.00
2023-02-16T02:09:16.288Z,101830.00
2023-02-16T02:11:57.290Z,101832.00
2023-02-16T02:14:32.664Z,101834.00
2023-02-16T02:17:05.977Z,101832.00
2023-02-16T02:19:48.696Z,101828.00
2023-02-16T02:23:06.966Z,101823.00
2023-02-16T02:26:04.453Z,101824.00
2023-02-16T02:28:53.175Z,101824.00
2023-02-16T02:31:44.126Z,101823.00
2023-02-16T02:34:38.256Z,101830.00
2023-02-16T02:37:29.749Z,101833.00
2023-02-16T02:40:41.596Z,101823.00
2023-02-16T02:43:37.693Z,101818.00
2023-02-16T02:46:17.925Z,101827.00
2023-02-16T02:48:44.728Z,101825.00
2023-02-16T02:51:30.333Z,101823.00
2023-02-16T02:54:25.170Z,101813.00
2023-02-16T02:57:37.734Z,101813.00
2023-02-16T03:00:39.973Z,101805.00
2023-02-16T03:03:32.802Z,101807.00
2023-02-16T03:06:11.176Z,101811.00
2023-02-16T03:08:44.776Z,101803.00
2023-02-16T03:11:40.350Z,101801.00
2023-02-16T03:14:15.142Z,101808.00
2023-02-16T03:16:48.164Z,101802.00
2023-02-16T03:19:37.127Z,101803.00
2023-02-16T03:22:24.022Z,101795.00
2023-02-16T03:25:09.395Z,101799.00
2023-02-16T03:28:00.378Z,101797.00
2023-02-16T03:30:28.988Z,101797.00
2023-02-16T03:32:55.880Z,101798.00
2023-02-16T03:35:22.882Z,101804.00
2023-02-16T03:37:49.630Z,101803.00
2023-02-16T03:40:30.121Z,101806.00
2023-02-16T03:43:03.462Z,101806.00
2023-02-16T03:45:33.062Z,101798.00
2023-02-16T03:47:59.792Z,101804.00
2023-02-16T03:50:27.406Z,101802.00
2023-02-16T03:53:06.879Z,101787.00
2023-02-16T03:55:47.047Z,101798.00
2023-02-16T03:58:18.575Z,101787.00
2023-02-16T04:00:45.678Z,101798.00
2023-02-16T04:03:13.298Z,101792.00
2023-02-16T04:05:40.353Z,101790.00
2023-02-16T04:08:08.832Z,101799.00
2023-02-16T04:10:37.262Z,101800.00
2023-02-16T04:13:04.600Z,101799.00
2023-02-16T04:15:32.252Z,101793.00
2023-02-16T04:17:59.970Z,101796.00
2023-02-16T04:20:31.106Z,101792.00
2023-02-16T04:22:58.467Z,101795.00
2023-02-16T04:25:25.838Z,101793.00
2023-02-16T04:27:54.109Z,101801.00
2023-02-16T04:30:26.439Z,101795.00
2023-02-16T04:32:53.998Z,101794.00
2023-02-16T04:35:21.628Z,101795.00
2023-02-16T04:37:48.869Z,101790.00
2023-02-16T04:40:17.833Z,101788.00
2023-02-16T04:42:45.877Z,101789.00
2023-02-16T04:45:13.626Z,101793.00
2023-02-16T04:47:40.626Z,101782.00
2023-02-16T04:50:08.559Z,101785.00
2023-02-16T04:52:36.616Z,101783.00
2023-02-16T04:55:05.456Z,101781.00
2023-02-16T04:57:32.475Z,101781.00
2023-02-16T04:59:59.228Z,101779.00
2023-02-16T05:02:26.011Z,101781.00
2023-02-16T05:04:52.796Z,101781.00
2023-02-16T05:07:19.539Z,101776.00
2023-02-16T05:09:46.277Z,101774.00
2023-02-16T05:12:31.745Z,101782.00
2023-02-16T05:14:58.471Z,101785.00
2023-02-16T05:17:26.951Z,101789.00
2023-02-16T05:20:00.119Z,101792.00
2023-02-16T05:22:33.549Z,101796.00
2023-02-16T05:25:03.561Z,101800.00
2023-02-16T05:27:31.096Z,101792.00
2023-02-16T05:29:58.778Z,101797.00
2023-02-16T05:32:26.478Z,101792.00
2023-02-16T05:34:53.390Z,101793.00
2023-02-16T05:37:20.106Z,101793.00
2023-02-16T05:39:47.082Z,101792.00
2023-02-16T05:42:13.938Z,101796.00
2023-02-16T05:44:40.689Z,101792.00
2023-02-16T05:47:07.934Z,101787.00
2023-02-16T05:49:34.725Z,101791.00
2023-02-16T05:52:01.847Z,101784.00
2023-02-16T05:54:28.699Z,101794.00
2023-02-16T05:56:55.557Z,101781.00
2023-02-16T05:59:22.646Z,101799.00
2023-02-16T06:01:51.848Z,101800.00
2023-02-16T06:04:20.567Z,101805.00
2023-02-16T06:06:48.274Z,101803.00
2023-02-16T06:09:15.095Z,101807.00
2023-02-16T06:11:42.106Z,101819.00
2023-02-16T06:14:15.583Z,101815.00
2023-02-16T06:16:45.910Z,101806.00
2023-02-16T06:19:13.711Z,101808.00
2023-02-16T06:21:41.484Z,101815.00
2023-02-16T06:24:10.448Z,101804.00
2023-02-16T06:26:37.903Z,101808.00
2023-02-16T06:29:06.883Z,101826.00
2023-02-16T06:31:36.189Z,101813.00
2023-02-16T06:34:03.764Z,101820.00
2023-02-16T06:36:31.032Z,101821.00
2023-02-16T06:38:57.790Z,101814.00
2023-02-16T06:41:40.007Z,101821.00
2023-02-16T06:44:12.520Z,101817.00
2023-02-16T06:46:41.091Z,101824.00
2023-02-16T06:49:11.105Z,101821.00
2023-02-16T06:51:38.682Z,101821.00
2023-02-16T06:54:05.520Z,101827.00
2023-02-16T06:56:32.398Z,101826.00
2023-02-16T06:58:59.147Z,101832.00
2023-02-16T07:01:26.236Z,101828.00
2023-02-16T07:03:55.167Z,101825.00
2023-02-16T07:06:24.793Z,101825.00
2023-02-16T07:08:53.025Z,101821.00
2023-02-16T07:11:20.318Z,101832.00
2023-02-16T07:13:47.820Z,101830.00
2023-02-16T07:16:15.722Z,101834.00
2023-02-16T07:18:42.816Z,101821.00
2023-02-16T07:21:09.536Z,101820.00
2023-02-16T07:23:36.278Z,101815.00
2023-02-16T07:26:03.138Z,101815.00
2023-02-16T07:28:29.938Z,101823.00
2023-02-16T07:30:56.762Z,101823.00
2023-02-16T07:33:23.905Z,101825.00
2023-02-16T07:35:50.629Z,101827.00
2023-02-16T07:38:17.434Z,101823.00
2023-02-16T07:40:44.164Z,101809.00
2023-02-16T07:43:10.882Z,101807.00
2023-02-16T07:45:37.787Z,101806.00
2023-02-16T07:48:05.102Z,101814.00
2023-02-16T07:50:31.867Z,101799.00
2023-02-16T07:53:02.726Z,101804.00
2023-02-16T07:55:29.463Z,101820.00
2023-02-16T07:58:00.043Z,101804.00
2023-02-16T08:00:27.403Z,101813.00
2023-02-16T08:02:54.191Z,101822.00
2023-02-16T08:05:21.154Z,101822.00
2023-02-16T08:07:47.986Z,101826.00
2023-02-16T08:10:15.730Z,101833.00
2023-02-16T08:12:42.704Z,101826.00
2023-02-16T08:15:10.655Z,101826.00
2023-02-16T08:17:37.460Z,101814.00
2023-02-16T08:20:07.627Z,101830.00
2023-02-16T08:22:35.852Z,101830.00
2023-02-16T08:25:02.613Z,101825.00
2023-02-16T08:27:29.320Z,101828.00
2023-02-16T08:29:56.093Z,101830.00
2023-02-16T08:32:22.967Z,101830.00
2023-02-16T08:34:49.732Z,101832.00
2023-02-16T08:37:16.467Z,101826.00
2023-02-16T08:39:43.361Z,101825.00
2023-02-16T08:42:13.295Z,101835.00
2023-02-16T08:44:42.270Z,101821.00
2023-02-16T08:47:09.496Z,101825.00
2023-02-16T08:49:36.491Z,101817.00
2023-02-16T08:52:04.173Z,101810.00
2023-02-16T08:54:33.243Z,101813.00
2023-02-16T08:57:02.682Z,101796.00
2023-02-16T08:59:30.361Z,101815.00
2023-02-16T09:01:59.424Z,101814.00
2023-02-16T09:04:29.252Z,101808.00
2023-02-16T09:06:58.145Z,101811.00
2023-02-16T09:09:26.290Z,101808.00
2023-02-16T09:11:53.505Z,101812.00
2023-02-16T09:14:22.951Z,101814.00
2023-02-16T09:16:50.205Z,101797.00
2023-02-16T09:19:20.703Z,101782.00
2023-02-16T09:21:50.888Z,101805.00
2023-02-16T09:24:19.082Z,101801.00
2023-02-16T09:26:45.833Z,101796.00
2023-02-16T09:29:13.867Z,101812.00
2023-02-16T09:31:42.445Z,101805.00
2023-02-16T09:34:21.694Z,101807.00
2023-02-16T09:36:50.370Z,101805.00
2023-02-16T09:39:18.676Z,101797.00
2023-02-16T09:42:03.277Z,101801.00
2023-02-16T09:45:02.774Z,101806.00
2023-02-16T09:47:35.649Z,101803.00
2023-02-16T09:50:13.266Z,101804.00
2023-02-16T09:52:52.502Z,101816.00
2023-02-16T09:55:22.447Z,101806.00
2023-02-16T09:58:17.361Z,101787.00
2023-02-16T10:00:52.064Z,101799.00
2023-02-16T10:03:34.447Z,101795.00
2023-02-16T10:06:13.663Z,101793.00
2023-02-16T10:09:16.992Z,101803.00
2023-02-16T10:11:51.179Z,101791.00
2023-02-16T10:14:31.671Z,101798.00
2023-02-16T10:17:32.643Z,101799.00
2023-02-16T10:20:23.740Z,101786.00
2023-02-16T10:23:07.963Z,101785.00
2023-02-16T10:25:46.490Z,101798.00
2023-02-16T10:28:22.647Z,101800.00
2023-02-16T10:31:03.217Z,101808.00
2023-02-16T10:33:45.091Z,101803.00
2023-02-16T10:36:42.467Z,101801.00
2023-02-16T10:39:43.380Z,101800.00
2023-02-16T10:42:43.862Z,101780.00
2023-02-16T10:45:42.000Z,101787.00
2023-02-16T10:48:11.073Z,101778.00
2023-02-16T10:50:58.443Z,101773.00
2023-02-16T10:53:40.556Z,101775.00
2023-02-16T10:56:43.786Z,101772.00
2023-02-16T10:59:43.726Z,101774.00
2023-02-16T11:02:44.164Z,101769.00
2023-02-16T11:05:26.232Z,101771.00
2023-02-16T11:08:02.567Z,101761.00
2023-02-16T11:10:51.670Z,101759.00
2023-02-16T11:13:27.892Z,101755.00
2023-02-16T11:16:01.569Z,101762.00
2023-02-16T11:18:37.928Z,101756.00
2023-02-16T11:21:07.385Z,101758.00
2023-02-16T11:23:37.343Z,101757.00
2023-02-16T11:26:11.718Z,101761.00
2023-02-16T11:28:47.662Z,101759.00
2023-02-16T11:31:34.258Z,101766.00
2023-02-16T11:34:26.000Z,101760.00
2023-02-16T11:37:12.312Z,101757.00
2023-02-16T11:39:46.984Z,101749.00
2023-02-16T11:42:43.962Z,101741.00
2023-02-16T11:45:33.699Z,101745.00
2023-02-16T11:48:27.223Z,101742.00
2023-02-16T11:50:58.555Z,101745.00
2023-02-16T11:53:30.934Z,101735.00
2023-02-16T11:56:24.574Z,101732.00
2023-02-16T11:59:20.732Z,101724.00
2023-02-16T12:01:53.048Z,101720.00
2023-02-16T12:05:01.795Z,101720.00
2023-02-16T12:08:07.515Z,101719.00
2023-02-16T12:11:06.330Z,101736.00
2023-02-16T12:13:56.938Z,101721.00
2023-02-16T12:16:45.582Z,101725.00
2023-02-16T12:19:45.071Z,101725.00
2023-02-16T12:22:22.094Z,101709.00
2023-02-16T12:25:19.788Z,101718.00
2023-02-16T12:28:40.743Z,101714.00
2023-02-16T12:31:54.381Z,101713.00
2023-02-16T12:34:52.338Z,101709.00
2023-02-16T12:37:42.586Z,101707.00
2023-02-16T12:40:50.140Z,101696.00
2023-02-16T12:43:41.886Z,101698.00
2023-02-16T12:46:40.421Z,101704.00
2023-02-16T12:49:27.499Z,101705.00
2023-02-16T12:52:10.287Z,101701.00
2023-02-16T12:54:54.436Z,101708.00
2023-02-16T12:57:24.418Z,101703.00
2023-02-16T13:00:03.004Z,101700.00
2023-02-16T13:02:47.079Z,101699.00
2023-02-16T13:05:36.047Z,101691.00
2023-02-16T13:08:28.128Z,101684.00
2023-02-16T13:11:22.102Z,101682.00
2023-02-16T13:13:52.656Z,101686.00
2023-02-16T13:17:00.222Z,101674.00
2023-02-16T13:19:26.988Z,101673.00
2023-02-16T13:21:53.621Z,101678.00
2023-02-16T13:25:17.180Z,101676.00
2023-02-16T13:28:32.262Z,101675.00
2023-02-16T13:31:15.565Z,101676.00
2023-02-16T13:34:07.018Z,101680.00
2023-02-16T13:36:56.503Z,101673.00
2023-02-16T13:39:49.788Z,101678.00
2023-02-16T13:42:22.392Z,101666.00
2023-02-16T13:44:56.567Z,101661.00
2023-02-16T13:47:39.055Z,101668.00
2023-02-16T13:50:26.824Z,101674.00
2023-02-16T13:52:57.596Z,101675.00
2023-02-16T13:55:31.933Z,101679.00
2023-02-16T13:58:04.522Z,101677.00
2023-02-16T14:00:38.066Z,101679.00
2023-02-16T14:03:22.263Z,101680.00
2023-02-16T14:05:53.226Z,101677.00
2023-02-16T14:08:31.329Z,101672.00
2023-02-16T14:11:05.776Z,101669.00
2023-02-16T14:13:36.858Z,101665.00
2023-02-16T14:16:18.807Z,101661.00
2023-02-16T14:18:54.932Z,101660.00
2023-02-16T14:21:32.323Z,101672.00
2023-02-16T14:24:03.217Z,101675.00
2023-02-16T14:26:32.516Z,101664.00
2023-02-16T14:29:28.762Z,101671.00
2023-02-16T14:32:26.423Z,101671.00
2023-02-16T14:35:03.222Z,101666.00
2023-02-16T14:37:44.361Z,101663.00
2023-02-16T14:40:34.884Z,101667.00
2023-02-16T14:43:20.024Z,101666.00
2023-02-16T14:46:47.494Z,101666.00
2023-02-16T14:49:35.702Z,101664.00
2023-02-16T14:52:39.433Z,101663.00
2023-02-16T14:55:47.467Z,101662.00
2023-02-16T14:58:44.840Z,101660.00
2023-02-16T15:01:18.850Z,101661.00
2023-02-16T15:03:54.729Z,101666.00
2023-02-16T15:06:47.580Z,101661.00
2023-02-16T15:09:24.432Z,101662.00
2023-02-16T15:12:18.098Z,101661.00
2023-02-16T15:15:02.750Z,101667.00
2023-02-16T15:17:38.308Z,101667.00
2023-02-16T15:20:33.282Z,101660.00
2023-02-16T15:23:04.422Z,101661.00
2023-02-16T15:25:38.434Z,101670.00
2023-02-16T15:28:22.257Z,101656.00
2023-02-16T15:30:55.358Z,101658.00
2023-02-16T15:33:24.922Z,101659.00
2023-02-16T15:36:02.359Z,101656.00
2023-02-16T15:38:34.355Z,101655.00
2023-02-16T15:41:06.508Z,101660.00
2023-02-16T15:43:39.967Z,101652.00
2023-02-16T15:46:29.488Z,101651.00
2023-02-16T15:48:57.264Z,101650.00
2023-02-16T15:51:35.022Z,101646.00
2023-02-16T15:54:06.611Z,101645.00
2023-02-16T15:56:38.200Z,101637.00
2023-02-16T15:59:39.525Z,101640.00
2023-02-16T16:02:28.556Z,101641.00
2023-02-16T16:05:03.269Z,101656.00
2023-02-16T16:07:37.049Z,101639.00
2023-02-16T16:10:17.240Z,101631.00
2023-02-16T16:12:45.634Z,101624.00
2023-02-16T16:15:21.008Z,101618.00
2023-02-16T16:17:47.759Z,101626.00
2023-02-16T16:20:30.520Z,101620.00
2023-02-16T16:23:23.555Z,101622.00
2023-02-16T16:25:51.270Z,101620.00
2023-02-16T16:28:29.700Z,101617.00
2023-02-16T16:31:17.352Z,101616.00
2023-02-16T16:34:02.895Z,101615.00
2023-02-16T16:36:55.657Z,101622.00
2023-02-16T16:39:28.761Z,101607.00
2023-02-16T16:42:01.084Z,101616.00
2023-02-16T16:44:41.367Z,101612.00
2023-02-16T16:47:22.707Z,101602.00
2023-02-16T16:49:55.553Z,101594.00
2023-02-16T16:52:41.591Z,101608.00
2023-02-16T16:55:21.519Z,101602.00
2023-02-16T16:57:52.058Z,101591.00
2023-02-16T17:00:21.638Z,101595.00
2023-02-16T17:02:48.941Z,101587.00
2023-02-16T17:05:16.177Z,101598.00
2023-02-16T17:07:43.192Z,101584.00
2023-02-16T17:10:10.315Z,101594.00
2023-02-16T17:12:37.088Z,101596.00
2023-02-16T17:15:07.746Z,101602.00
2023-02-16T17:17:34.752Z,101598.00
2023-02-16T17:20:01.473Z,101593.00
2023-02-16T17:22:28.222Z,101597.00
2023-02-16T17:24:54.944Z,101604.00
2023-02-16T17:27:21.708Z,101600.00
2023-02-16T17:29:48.478Z,101600.00
2023-02-16T17:32:15.305Z,101605.00
2023-02-16T17:34:42.093Z,101598.00
2023-02-16T17:37:10.630Z,101606.00
2023-02-16T17:39:37.410Z,101597.00
2023-02-16T17:42:04.440Z,101599.00
2023-02-16T17:44:31.187Z,101606.00
2023-02-16T17:46:57.981Z,101612.00
2023-02-16T17:49:24.713Z,101612.00
2023-02-16T17:51:51.829Z,101616.00
2023-02-16T17:54:18.570Z,101617.00
2023-02-16T17:56:46.820Z,101613.00
2023-02-16T17:59:15.467Z,101616.00
2023-02-16T18:01:43.989Z,101620.00
2023-02-16T18:04:10.967Z,101614.00
2023-02-16T18:06:37.724Z,101609.00
2023-02-16T18:09:04.794Z,101615.00
2023-02-16T18:11:31.701Z,101616.00
2023-02-16T18:13:58.516Z,101612.00
2023-02-16T18:16:27.451Z,101605.00
2023-02-16T18:18:54.700Z,101612.00
2023-02-16T18:21:21.540Z,101604.00
2023-02-16T18:23:48.297Z,101609.00
2023-02-16T18:26:16.840Z,101622.00
2023-02-16T18:28:44.935Z,101608.00
2023-02-16T18:31:12.947Z,101607.00
2023-02-16T18:33:39.838Z,101613.00
2023-02-16T18:36:07.387Z,101612.00
2023-02-16T18:38:34.509Z,101616.00
2023-02-16T18:41:01.265Z,101619.00
2023-02-16T18:43:28.187Z,101620.00
2023-02-16T18:45:54.928Z,101614.00
2023-02-16T18:48:21.756Z,101605.00
2023-02-16T18:50:48.863Z,101612.00
2023-02-16T18:53:15.593Z,101606.00
2023-02-16T18:55:43.125Z,101594.00
2023-02-16T18:58:14.368Z,101605.00
2023-02-16T19:00:41.835Z,101602.00
2023-02-16T19:03:09.480Z,101604.00
2023-02-16T19:05:36.287Z,101603.00
2023-02-16T19:08:03.146Z,101603.00
2023-02-16T19:10:30.242Z,101598.00
2023-02-16T19:12:57.013Z,101597.00
2023-02-16T19:15:24.065Z,101584.00
2023-02-16T19:17:51.844Z,101590.00
2023-02-16T19:20:19.625Z,101586.00
2023-02-16T19:22:47.810Z,101592.00
2023-02-16T19:25:15.437Z,101587.00
2023-02-16T19:27:44.185Z,101593.00
2023-02-16T19:30:12.209Z,101602.00
2023-02-16T19:32:41.130Z,101601.00
2023-02-16T19:35:12.321Z,101596.00
2023-02-16T19:37:39.314Z,101599.00
2023-02-16T19:40:09.631Z,101603.00
2023-02-16T19:42:37.302Z,101596.00
2023-02-16T19:45:04.734Z,101604.00
2023-02-16T19:47:31.484Z,101612.00
2023-02-16T19:49:58.265Z,101604.00
2023-02-16T19:52:25.333Z,101606.00
2023-02-16T19:54:52.065Z,101598.00
2023-02-16T19:57:19.037Z,101601.00
2023-02-16T19:59:45.742Z,101603.00
2023-02-16T20:02:14.671Z,101586.00
2023-02-16T20:04:43.200Z,101583.00
2023-02-16T20:07:09.982Z,101586.00
2023-02-16T20:09:37.339Z,101601.00
2023-02-16T20:12:04.961Z,101586.00
2023-02-16T20:14:31.710Z,101599.00
2023-02-16T20:16:58.451Z,101595.00
2023-02-16T20:19:25.214Z,101603.00
2023-02-16T20:21:51.969Z,101597.00
2023-02-16T20:24:18.725Z,101596.00
2023-02-16T20:26:47.160Z,101588.00
2023-02-16T20:29:16.269Z,101589.00
2023-02-16T20:31:54.665Z,101586.00
2023-02-16T20:34:23.812Z,101583.00
2023-02-16T20:36:50.563Z,101572.00
2023-02-16T20:39:17.365Z,101573.00
2023-02-16T20:41:44.555Z,101566.00
2023-02-16T20:44:12.578Z,101573.00
2023-02-16T20:46:41.036Z,101573.00
2023-02-16T20:49:08.931Z,101578.00
2023-02-16T20:51:37.389Z,101581.00
2023-02-16T20:54:05.377Z,101587.00
2023-02-16T20:56:32.121Z,101582.00
2023-02-16T20:58:58.943Z,101584.00
2023-02-16T21:01:40.043Z,101585.00
2023-02-16T21:04:08.275Z,101585.00
2023-02-16T21:06:36.515Z,101580.00
2023-02-16T21:09:05.788Z,101569.00
2023-02-16T21:11:32.644Z,101567.00
2023-02-16T21:13:59.509Z,101556.00
2023-02-16T21:16:26.364Z,101565.00
2023-02-16T21:18:53.136Z,101563.00
2023-02-16T21:21:20.274Z,101558.00
2023-02-16T21:23:51.813Z,101549.00
2023-02-16T21:26:22.772Z,101541.00
2023-02-16T21:28:50.145Z,101544.00
2023-02-16T21:31:24.461Z,101538.00
2023-02-16T21:33:52.213Z,101535.00
2023-02-16T21:36:23.914Z,101545.00
2023-02-16T21:38:50.826Z,101543.00
2023-02-16T21:41:24.842Z,101548.00
2023-02-16T21:44:08.258Z,101542.00
2023-02-16T21:46:48.314Z,101535.00
2023-02-16T21:49:20.056Z,101538.00
2023-02-16T21:51:48.487Z,101534.00
2023-02-16T21:54:38.858Z,101534.00
2023-02-16T21:57:05.586Z,101523.00
2023-02-16T21:59:32.347Z,101523.00
2023-02-16T22:01:59.223Z,101512.00
2023-02-16T22:04:26.032Z,101508.00
2023-02-16T22:06:52.764Z,101510.00
2023-02-16T22:09:22.935Z,101502.00
2023-02-16T22:11:51.306Z,101505.00
2023-02-16T22:14:19.334Z,101510.00
2023-02-16T22:16:47.784Z,101498.00
2023-02-16T22:19:17.887Z,101506.00
2023-02-16T22:21:46.840Z,101499.00
2023-02-16T22:24:16.920Z,101505.00
2023-02-16T22:26:44.901Z,101496.00
2023-02-16T22:29:12.981Z,101495.00
2023-02-16T22:31:46.878Z,101492.00
2023-02-16T22:34:16.733Z,101497.00
2023-02-16T22:36:43.791Z,101500.00
2023-02-16T22:39:13.889Z,101491.00
2023-02-16T22:41:41.235Z,101488.00
2023-02-16T22:44:09.799Z,101494.00
2023-02-16T22:46:36.552Z,101490.00
2023-02-16T22:49:03.395Z,101496.00
2023-02-16T22:51:30.979Z,101490.00
2023-02-16T22:54:00.607Z,101489.00
2023-02-16T22:56:28.254Z,101492.00
2023-02-16T22:58:57.668Z,101494.00
2023-02-16T23:01:27.518Z,101499.00
2023-02-16T23:03:58.543Z,101498.00
2023-02-16T23:06:33.471Z,101486.00
2023-02-16T23:09:13.875Z,101482.00
2023-02-16T23:11:41.054Z,101485.00
2023-02-16T23:14:16.156Z,101484.00
2023-02-16T23:16:49.973Z,101485.00
2023-02-16T23:19:21.862Z,101479.00
2023-02-16T23:21:49.422Z,101474.00
2023-02-16T23:24:21.527Z,101469.00
2023-02-16T23:26:48.821Z,101477.00
2023-02-16T23:29:16.063Z,101475.00
2023-02-16T23:31:46.565Z,101469.00
2023-02-16T23:34:14.566Z,101466.00
2023-02-16T23:36:42.087Z,101470.00
2023-02-16T23:39:12.970Z,101468.00
2023-02-16T23:41:40.731Z,101475.00
2023-02-16T23:44:09.949Z,101460.00
2023-02-16T23:46:36.700Z,101458.00
2023-02-16T23:49:03.787Z,101474.00
2023-02-16T23:51:30.726Z,101468.00
2023-02-16T23:53:57.552Z,101464.00
2023-02-16T23:56:27.582Z,101459.00
2023-02-16T23:59:00.025Z,101472.00
